KCDH/CDH METAR and TAF weather

Enter ICAO airport designator
Station Type Date Time Source
KCDH METAR 2018/12/10 17:55 UTC NOAA

KCDH 101755Z AUTO 34007KT 320V020 10SM CLR 08/M07 A3036 RMK AO2


Station Type Date Time Source
KCDH Decoded METAR 2018/12/10 17:55 UTC NOAA

Camden / Harrell Field, AR, United States (KCDH) 33-37N 092-46W
Dec 10, 2018 - 12:55 PM EST / 2018.12.10 1755 UTC
Wind: from the NNW (340 degrees) at 8 MPH (7 KT) (direction variable):0
Visibility: 10 mile(s):0
Sky conditions: clear
Temperature: 46 F (8 C)
Dew Point: 19 F (-7 C)
Relative Humidity: 33%
Pressure (altimeter): 30.36 in. Hg (1028 hPa)
ob: KCDH 101755Z AUTO 34007KT 320V020 10SM CLR 08/M07 A3036 RMK AO2
cycle: 18

Station Type Date Time Source
KCDH TAF UTC NOAA

Error!


Example: see airport list